Time;durP1;ratioP1;P1;durP2;ratioP2;P2;SDS_P1;SDS_P2;PMS_P1;PMS_P2;Temp;Humidity;BMP_temperature;BMP_pressure;BME280_temperature;BME280_humidity;BME280_pressure;Samples;Min_cycle;Max_cycle;Signal;HPM_P1;HPM_P2
2023/09/03 00:00:52;;;;;;;;;;;;;;;25.34;48.99;99189.41;5031218;28;19960;-75
2023/09/03 00:03:17;;;;;;;;;;;;;;;25.31;48.78;99192.50;5031049;28;19919;-75
2023/09/03 00:05:49;;;;;;;;;;;;;;;25.28;49.00;99192.88;5031325;28;19960;-75
2023/09/03 00:08:14;;;;;;;;;;;;;;;25.26;48.80;99182.38;5031221;28;19913;-75
2023/09/03 00:10:40;;;;;;;;;;;;;;;25.26;48.77;99187.72;5018402;28;20394;-75
2023/09/03 00:13:05;;;;;;;;;;;;;;;25.24;48.44;99178.28;5011404;28;20020;-75
2023/09/03 00:15:30;;;;;;;;;;;;;;;25.23;48.49;99177.44;5011575;28;19913;-75
2023/09/03 00:17:56;;;;;;;;;;;;;;;25.22;48.65;99175.81;5011450;28;19971;-75
2023/09/03 00:20:21;;;;;;;;;;;;;;;25.22;48.42;99180.31;4995001;28;19913;-75
2023/09/03 00:22:46;;;;;;;;;;;;;;;25.21;48.57;99184.84;4994931;28;19914;-75
2023/09/03 00:25:12;;;;;;;;;;;;;;;25.17;48.40;99185.44;4978652;28;19913;-75
2023/09/03 00:27:37;;;;;;;;;;;;;;;25.13;48.54;99181.50;5012649;28;19972;-75
2023/09/03 00:30:02;;;;;;;;;;;;;;;25.08;48.51;99182.94;5012394;28;19913;-76
2023/09/03 00:32:27;;;;;;;;;;;;;;;25.05;48.08;99186.03;5011661;28;19921;-76
2023/09/03 00:34:53;;;;;;;;;;;;;;;25.05;47.99;99186.03;5012333;28;19918;-75
2023/09/03 00:37:18;;;;;;;;;;;;;;;25.04;47.79;99184.34;5012605;28;20340;-76
2023/09/03 00:39:43;;;;;;;;;;;;;;;25.03;47.39;99179.22;5011165;28;19921;-75
2023/09/03 00:42:09;;;;;;;;;;;;;;;25.01;47.53;99179.41;5011258;28;20299;-76
2023/09/03 00:44:34;;;;;;;;;;;;;;;25.00;47.39;99180.47;5015084;28;19914;-76
2023/09/03 00:47:00;;;;;;;;;;;;;;;25.02;47.05;99180.25;5016380;28;19960;-76
2023/09/03 00:49:25;;;;;;;;;;;;;;;25.00;46.87;99175.13;5015219;28;20295;-75
2023/09/03 00:51:51;;;;;;;;;;;;;;;25.00;46.86;99177.78;5015064;28;19967;-76
2023/09/03 00:54:16;;;;;;;;;;;;;;;25.02;46.46;99169.59;4998279;28;19913;-75
2023/09/03 00:56:41;;;;;;;;;;;;;;;25.02;46.29;99170.38;5014761;28;19955;-76
2023/09/03 00:59:07;;;;;;;;;;;;;;;25.03;46.36;99173.88;4999255;28;19917;-76
2023/09/03 01:01:32;;;;;;;;;;;;;;;25.02;46.30;99181.06;4998880;28;19963;-76
2023/09/03 01:03:58;;;;;;;;;;;;;;;25.02;46.45;99169.59;5015944;28;19913;-75
2023/09/03 01:06:25;;;;;;;;;;;;;;;25.02;46.76;99172.25;4998235;28;19913;-76
2023/09/03 01:08:50;;;;;;;;;;;;;;;25.01;46.58;99171.41;4998301;28;19924;-75
2023/09/03 01:11:15;;;;;;;;;;;;;;;25.01;46.65;99173.25;5014446;28;19914;-75
2023/09/03 01:13:57;;;;;;;;;;;;;;;24.99;46.85;99176.13;5015814;28;19913;-75
2023/09/03 01:16:25;;;;;;;;;;;;;;;24.98;47.12;99171.81;5014523;28;19971;-75
2023/09/03 01:18:50;;;;;;;;;;;;;;;24.98;47.34;99165.66;5013906;28;19923;-75
2023/09/03 01:21:15;;;;;;;;;;;;;;;24.95;47.82;99174.88;5014424;28;20007;-75
2023/09/03 01:23:52;;;;;;;;;;;;;;;24.93;47.61;99169.72;4997752;28;20000;-75
2023/09/03 01:26:24;;;;;;;;;;;;;;;24.92;48.07;99169.94;5015791;28;19921;-75
2023/09/03 01:28:49;;;;;;;;;;;;;;;24.91;48.07;99165.63;5013836;28;20384;-75
2023/09/03 01:31:16;;;;;;;;;;;;;;;24.89;48.22;99170.31;5014295;28;19913;-77
2023/09/03 01:33:41;;;;;;;;;;;;;;;24.88;48.47;99169.50;5015127;28;19923;-75
2023/09/03 01:36:09;;;;;;;;;;;;;;;24.85;48.56;99171.75;5014258;28;19917;-75
2023/09/03 01:38:34;;;;;;;;;;;;;;;24.84;48.53;99170.09;5015344;28;19913;-76
2023/09/03 01:40:59;;;;;;;;;;;;;;;24.82;48.39;99169.50;5014101;28;19921;-75
2023/09/03 01:43:25;;;;;;;;;;;;;;;24.81;48.55;99163.34;4997769;28;19972;-75
2023/09/03 01:46:06;;;;;;;;;;;;;;;24.80;48.45;99159.00;4997827;28;19978;-76
2023/09/03 01:48:50;;;;;;;;;;;;;;;24.80;48.31;99159.00;5015096;28;19920;-75
2023/09/03 01:51:24;;;;;;;;;;;;;;;24.82;48.32;99170.31;5015072;28;19913;-75
2023/09/03 01:54:19;;;;;;;;;;;;;;;24.81;48.22;99162.50;5014716;28;20365;-75
2023/09/03 01:56:51;;;;;;;;;;;;;;;24.80;48.67;99168.88;4957779;28;19961;-75
2023/09/03 01:59:19;;;;;;;;;;;;;;;24.79;48.81;99165.38;4957658;28;19952;-76
2023/09/03 02:01:45;;;;;;;;;;;;;;;24.78;48.94;99166.41;4957837;28;20016;-76
2023/09/03 02:04:10;;;;;;;;;;;;;;;24.75;49.14;99164.13;4957608;28;20001;-75
2023/09/03 02:06:35;;;;;;;;;;;;;;;24.74;49.27;99165.16;4956781;28;19914;-76
2023/09/03 02:09:00;;;;;;;;;;;;;;;24.70;49.50;99164.72;4957717;28;19921;-76
2023/09/03 02:11:26;;;;;;;;;;;;;;;24.69;49.54;99164.94;4941510;28;19914;-76
2023/09/03 02:13:51;;;;;;;;;;;;;;;24.69;49.31;99165.75;4941380;28;19914;-75
2023/09/03 02:16:16;;;;;;;;;;;;;;;24.70;49.55;99171.88;4957410;28;19956;-76
2023/09/03 02:18:42;;;;;;;;;;;;;;;24.69;49.51;99171.06;4941130;28;19914;-75
2023/09/03 02:21:07;;;;;;;;;;;;;;;24.70;49.38;99169.22;4957433;28;19921;-75
2023/09/03 02:23:32;;;;;;;;;;;;;;;24.70;49.51;99167.41;4973483;28;19914;-75
2023/09/03 02:26:01;;;;;;;;;;;;;;;24.69;49.56;99165.75;4941152;28;20361;-75
2023/09/03 02:28:26;;;;;;;;;;;;;;;24.68;49.51;99164.06;4941459;28;19918;-75
2023/09/03 02:30:52;;;;;;;;;;;;;;;24.67;49.44;99162.44;4957322;28;19984;-75
2023/09/03 02:33:17;;;;;;;;;;;;;;;24.65;49.58;99159.13;4996889;28;20344;-74
2023/09/03 02:35:42;;;;;;;;;;;;;;;24.66;49.60;99159.97;5031429;28;19924;-75
2023/09/03 02:38:08;;;;;;;;;;;;;;;24.66;49.51;99165.31;5032866;28;19917;-75
2023/09/03 02:40:33;;;;;;;;;;;;;;;24.65;49.74;99158.31;5032740;28;20376;-75
2023/09/03 02:42:58;;;;;;;;;;;;;;;24.63;49.54;99161.19;5032608;28;20013;-75
2023/09/03 02:45:23;;;;;;;;;;;;;;;24.63;49.47;99163.03;5033970;28;19970;-76
2023/09/03 02:47:49;;;;;;;;;;;;;;;24.63;49.55;99166.53;5032829;28;19963;-75
2023/09/03 02:50:14;;;;;;;;;;;;;;;24.61;49.57;99163.25;5032180;28;20024;-76
2023/09/03 02:52:39;;;;;;;;;;;;;;;24.60;49.63;99158.91;5032485;28;20253;-76
2023/09/03 02:55:05;;;;;;;;;;;;;;;24.61;49.59;99159.75;5032764;28;20012;-76
2023/09/03 02:57:30;;;;;;;;;;;;;;;24.60;49.47;99164.25;5016203;28;19921;-76
2023/09/03 02:59:55;;;;;;;;;;;;;;;24.58;49.74;99165.50;5016118;28;19913;-75
2023/09/03 03:02:20;;;;;;;;;;;;;;;24.56;49.87;99162.97;5015713;28;20304;-76
2023/09/03 03:04:46;;;;;;;;;;;;;;;24.55;49.64;99158.66;5014992;28;20012;-76
2023/09/03 03:07:11;;;;;;;;;;;;;;;24.54;49.99;99162.34;5015462;28;19967;-76
2023/09/03 03:09:36;;;;;;;;;;;;;;;24.55;49.96;99164.00;5032176;28;20368;-76
2023/09/03 03:12:02;;;;;;;;;;;;;;;24.55;49.92;99164.00;5031804;28;20376;-75
2023/09/03 03:14:27;;;;;;;;;;;;;;;24.53;49.92;99160.72;5033703;28;19920;-75
2023/09/03 03:16:52;;;;;;;;;;;;;;;24.51;49.89;99162.72;5015417;28;19913;-75
2023/09/03 03:19:18;;;;;;;;;;;;;;;24.48;50.20;99155.97;5031914;28;19913;-76
2023/09/03 03:21:43;;;;;;;;;;;;;;;24.45;50.41;99155.50;5033312;28;19983;-75
2023/09/03 03:24:08;;;;;;;;;;;;;;;24.41;50.58;99152.41;5031872;28;19913;-75
2023/09/03 03:26:34;;;;;;;;;;;;;;;24.40;50.57;99153.47;5015283;28;19971;-75
2023/09/03 03:28:59;;;;;;;;;;;;;;;24.39;50.49;99154.47;5015516;28;20023;-75
2023/09/03 03:31:25;;;;;;;;;;;;;;;24.40;50.57;99158.78;5031384;28;19952;-76
2023/09/03 03:33:51;;;;;;;;;;;;;;;24.39;50.50;99155.28;5015215;28;20007;-75
2023/09/03 03:36:18;;;;;;;;;;;;;;;24.39;50.62;99160.63;5031710;28;19923;-75
2023/09/03 03:38:43;;;;;;;;;;;;;;;24.40;50.57;99153.47;5032902;28;19964;-75
2023/09/03 03:41:09;;;;;;;;;;;;;;;24.39;50.56;99160.63;5031546;28;19952;-75
2023/09/03 03:43:35;;;;;;;;;;;;;;;24.39;50.71;99159.81;5031637;28;20015;-76
2023/09/03 03:46:00;;;;;;;;;;;;;;;24.42;50.48;99161.28;5031477;28;19924;-77
2023/09/03 03:48:26;;;;;;;;;;;;;;;24.42;50.63;99156.75;5031660;28;19913;-76
2023/09/03 03:50:54;;;;;;;;;;;;;;;24.51;50.46;99163.56;5014772;28;19912;-76
2023/09/03 03:53:20;;;;;;;;;;;;;;;24.68;49.72;99171.28;4998523;28;19913;-77
2023/09/03 03:55:45;;;;;;;;;;;;;;;24.82;49.41;99164.16;5031224;28;19913;-76
2023/09/03 03:58:11;;;;;;;;;;;;;;;25.04;48.53;99162.19;5015217;28;20335;-76
2023/09/03 04:00:36;;;;;;;;;;;;;;;25.26;48.03;99155.66;5015244;28;20399;-77
2023/09/03 04:03:01;;;;;;;;;;;;;;;25.49;47.18;99156.34;5014894;28;19913;-75
2023/09/03 04:05:26;;;;;;;;;;;;;;;25.70;46.85;99158.84;5031537;28;19920;-76
2023/09/03 04:07:52;;;;;;;;;;;;;;;26.02;45.83;99156.38;5014991;28;19968;-75
2023/09/03 04:10:17;;;;;;;;;;;;;;;26.42;45.19;99148.28;5031544;28;20437;-76
2023/09/03 04:12:43;;;;;;;;;;;;;;;27.04;43.71;99150.53;5031316;28;19919;-77
2023/09/03 04:15:08;;;;;;;;;;;;;;;27.77;42.13;99155.44;5014901;28;19913;-75
2023/09/03 04:17:33;;;;;;;;;;;;;;;28.49;40.76;99151.47;5017203;28;19963;-77
2023/09/03 04:19:59;;;;;;;;;;;;;;;29.14;39.49;99148.19;5019443;28;19955;-77
2023/09/03 04:22:24;;;;;;;;;;;;;;;29.88;38.21;99153.31;5036130;28;19913;-77
2023/09/03 04:24:49;;;;;;;;;;;;;;;30.60;36.43;99157.63;5036851;28;19983;-77
2023/09/03 04:27:14;;;;;;;;;;;;;;;31.27;35.37;99152.72;5036345;28;19913;-76
2023/09/03 04:29:40;;;;;;;;;;;;;;;31.97;34.36;99153.31;5036478;28;20367;-74
2023/09/03 04:32:06;;;;;;;;;;;;;;;32.61;32.90;99142.88;5018404;28;19919;-75
2023/09/03 04:34:31;;;;;;;;;;;;;;;33.16;31.88;99148.34;5034632;28;19917;-75
2023/09/03 04:36:56;;;;;;;;;;;;;;;33.66;31.38;99143.69;5036753;28;19917;-74
2023/09/03 04:39:22;;;;;;;;;;;;;;;34.16;30.66;99152.41;5002101;28;19917;-75
2023/09/03 04:41:47;;;;;;;;;;;;;;;34.69;29.28;99145.09;5034892;28;19960;-75
2023/09/03 04:44:12;;;;;;;;;;;;;;;35.14;28.59;99146.34;5034696;28;19978;-74
2023/09/03 04:46:38;;;;;;;;;;;;;;;35.69;27.97;99146.66;5035218;28;20366;-75
2023/09/03 04:49:03;;;;;;;;;;;;;;;36.12;26.99;99145.50;5018044;28;19913;-74
2023/09/03 04:51:28;;;;;;;;;;;;;;;36.32;26.57;99147.38;5035355;28;19913;-78
2023/09/03 04:53:54;;;;;;;;;;;;;;;36.76;25.68;99146.69;5017035;28;20355;-76
2023/09/03 04:56:19;;;;;;;;;;;;;;;37.09;25.63;99138.88;5019730;28;20447;-77
2023/09/03 04:58:45;;;;;;;;;;;;;;;37.35;24.95;99133.25;5017831;28;19936;-78
2023/09/03 05:01:14;;;;;;;;;;;;;;;37.79;25.01;99137.78;5017872;28;19924;-76
2023/09/03 05:03:39;;;;;;;;;;;;;;;37.99;24.53;99137.59;5034290;28;19917;-76
2023/09/03 05:06:04;;;;;;;;;;;;;;;38.29;24.15;99130.19;5017289;28;20397;-76
2023/09/03 05:08:30;;;;;;;;;;;;;;;38.53;23.78;99121.97;5033382;28;19921;-78
2023/09/03 05:10:55;;;;;;;;;;;;;;;38.82;23.02;99121.06;5017713;28;19935;-76
2023/09/03 05:13:20;;;;;;;;;;;;;;;38.99;23.32;99131.44;5017764;28;19920;-77
2023/09/03 05:15:47;;;;;;;;;;;;;;;39.16;23.11;99127.44;5017732;28;20320;-75
2023/09/03 05:18:12;;;;;;;;;;;;;;;39.40;23.25;99128.09;5017376;28;19959;-78
2023/09/03 05:20:38;;;;;;;;;;;;;;;39.57;22.38;99124.84;5017508;28;19948;-77
2023/09/03 05:23:03;;;;;;;;;;;;;;;39.68;22.19;99128.22;5033653;28;19963;-78
2023/09/03 05:25:29;;;;;;;;;;;;;;;39.75;22.28;99125.88;5034306;28;19920;-77
2023/09/03 05:27:54;;;;;;;;;;;;;;;39.93;22.25;99126.94;5017285;28;19913;-77
2023/09/03 05:30:20;;;;;;;;;;;;;;;40.07;22.06;99128.88;5033463;28;19917;-77
2023/09/03 05:32:45;;;;;;;;;;;;;;;40.10;21.83;99131.00;5034359;28;19913;-76
2023/09/03 05:35:10;;;;;;;;;;;;;;;40.22;21.60;99122.31;5033720;28;20300;-75
2023/09/03 05:37:36;;;;;;;;;;;;;;;40.25;21.59;99125.22;5034102;28;19917;-76
2023/09/03 05:40:01;;;;;;;;;;;;;;;40.48;21.81;99133.53;5033709;28;19913;-77
2023/09/03 05:42:26;;;;;;;;;;;;;;;40.49;21.21;99135.16;5033725;28;20011;-76
2023/09/03 05:44:53;;;;;;;;;;;;;;;40.68;21.08;99130.34;5034901;28;19971;-76
2023/09/03 05:47:18;;;;;;;;;;;;;;;40.74;21.77;99130.22;5017275;28;19986;-76
2023/09/03 05:49:44;;;;;;;;;;;;;;;40.85;21.29;99127.00;5017426;28;20331;-77
2023/09/03 05:52:10;;;;;;;;;;;;;;;40.87;20.58;99123.97;5033353;28;19928;-77
2023/09/03 05:54:35;;;;;;;;;;;;;;;41.02;20.70;99131.00;5016807;28;20299;-76
2023/09/03 05:57:00;;;;;;;;;;;;;;;41.09;21.47;99134.13;5033992;28;19921;-77
2023/09/03 05:59:26;;;;;;;;;;;;;;;41.42;20.69;99131.16;5036901;28;19963;-77
2023/09/03 06:01:51;;;;;;;;;;;;;;;41.93;20.38;99127.06;5036163;28;19913;-73
2023/09/03 06:04:16;;;;;;;;;;;;;;;42.36;19.66;99127.56;5016943;28;19913;-78
2023/09/03 06:06:42;;;;;;;;;;;;;;;42.66;19.63;99126.66;5034607;28;20007;-75
2023/09/03 06:09:07;;;;;;;;;;;;;;;43.09;19.18;99127.81;5016792;28;19913;-73
2023/09/03 06:11:33;;;;;;;;;;;;;;;43.44;18.74;99137.97;5033064;28;20014;-73
2023/09/03 06:13:58;;;;;;;;;;;;;;;43.73;18.34;99134.50;5033520;28;19913;-73
2023/09/03 06:16:23;;;;;;;;;;;;;;;44.01;18.12;99139.56;5034348;28;20435;-73
2023/09/03 06:18:49;;;;;;;;;;;;;;;44.23;18.00;99135.78;5016566;28;19919;-73
2023/09/03 06:21:14;;;;;;;;;;;;;;;44.37;17.87;99150.09;5016160;28;20385;-73
2023/09/03 06:23:39;;;;;;;;;;;;;;;44.50;17.79;99150.19;5033276;28;20407;-73
2023/09/03 06:26:05;;;;;;;;;;;;;;;44.63;17.17;99149.16;5034038;28;19917;-73
2023/09/03 06:28:31;;;;;;;;;;;;;;;44.73;17.44;99148.75;5016126;28;19989;-72
2023/09/03 06:30:58;;;;;;;;;;;;;;;44.82;17.09;99150.63;5015586;28;20356;-73
2023/09/03 06:33:24;;;;;;;;;;;;;;;44.88;16.90;99154.78;5032718;28;19924;-73
2023/09/03 06:35:49;;;;;;;;;;;;;;;44.95;16.61;99150.34;5015690;28;19921;-74
2023/09/03 06:38:14;;;;;;;;;;;;;;;45.01;16.24;99151.00;5033774;28;19960;-74
2023/09/03 06:40:40;;;;;;;;;;;;;;;45.07;15.78;99143.31;5015972;28;20016;-73
2023/09/03 06:43:05;;;;;;;;;;;;;;;45.11;15.93;99147.81;5015608;28;19913;-74
2023/09/03 06:45:31;;;;;;;;;;;;;;;45.18;15.80;99146.47;5015848;28;19917;-74
2023/09/03 06:47:57;;;;;;;;;;;;;;;45.23;15.34;99143.47;5032788;28;20376;-73
2023/09/03 06:50:22;;;;;;;;;;;;;;;45.26;15.81;99153.81;5033411;28;19964;-73
2023/09/03 06:52:47;;;;;;;;;;;;;;;45.29;15.32;99155.91;5032281;28;19913;-73
2023/09/03 06:55:12;;;;;;;;;;;;;;;45.34;15.24;99155.69;5015929;28;19964;-73
2023/09/03 06:57:38;;;;;;;;;;;;;;;45.39;15.13;99158.28;5032005;28;19964;-74
2023/09/03 07:00:06;;;;;;;;;;;;;;;45.39;14.90;99157.44;5032736;28;20011;-72
2023/09/03 07:02:31;;;;;;;;;;;;;;;45.42;15.54;99154.03;5032023;28;19917;-74
2023/09/03 07:04:59;;;;;;;;;;;;;;;45.42;15.00;99156.78;5015302;28;20343;-74
2023/09/03 07:07:24;;;;;;;;;;;;;;;45.41;14.73;99155.97;5015441;28;19961;-73
2023/09/03 07:09:50;;;;;;;;;;;;;;;45.39;14.83;99158.28;4999121;28;19917;-73
2023/09/03 07:12:15;;;;;;;;;;;;;;;45.41;14.83;99155.19;5031929;28;19999;-72
2023/09/03 07:14:40;;;;;;;;;;;;;;;45.49;14.50;99154.28;5014894;28;19927;-72
2023/09/03 07:17:06;;;;;;;;;;;;;;;45.48;14.86;99159.00;5031442;28;20303;-73
2023/09/03 07:19:31;;;;;;;;;;;;;;;45.46;14.73;99153.00;5031845;28;19920;-73
2023/09/03 07:21:56;;;;;;;;;;;;;;;45.46;14.76;99157.72;5015809;28;19979;-74
2023/09/03 07:24:22;;;;;;;;;;;;;;;45.45;14.42;99159.69;5015173;28;20319;-73
2023/09/03 07:26:47;;;;;;;;;;;;;;;45.48;14.14;99161.75;5015057;28;19952;-72
2023/09/03 07:29:13;;;;;;;;;;;;;;;45.47;14.19;99151.88;5031957;28;19975;-72
2023/09/03 07:31:40;;;;;;;;;;;;;;;45.46;14.51;99161.28;5015392;28;20310;-74
2023/09/03 07:34:12;;;;;;;;;;;;;;;45.42;14.29;99151.25;5031256;28;19967;-74
2023/09/03 07:36:37;;;;;;;;;;;;;;;45.39;13.96;99147.25;5014322;28;19917;-82
2023/09/03 07:39:06;;;;;;;;;;;;;;;45.41;14.28;99150.47;5031419;28;19913;-78
2023/09/03 07:41:35;;;;;;;;;;;;;;;45.38;14.07;99145.63;5031541;28;19920;-79
2023/09/03 07:44:00;;;;;;;;;;;;;;;45.39;14.02;99139.00;5031403;28;20055;-80
2023/09/03 07:46:26;;;;;;;;;;;;;;;45.42;14.37;99140.25;5031645;28;20000;-77
2023/09/03 07:48:51;;;;;;;;;;;;;;;45.49;13.88;99140.50;5015005;28;19920;-77
2023/09/03 07:51:17;;;;;;;;;;;;;;;45.49;13.83;99141.28;5013776;28;19917;-77
2023/09/03 07:53:42;;;;;;;;;;;;;;;45.53;13.73;99133.13;5031297;28;19912;-78
2023/09/03 07:56:08;;;;;;;;;;;;;;;45.54;13.69;99139.47;5014851;28;19913;-79
2023/09/03 07:58:33;;;;;;;;;;;;;;;45.57;13.33;99139.59;5031267;28;20277;-84
2023/09/03 08:00:58;;;;;;;;;;;;;;;45.64;13.47;99136.25;5031847;28;19913;-81
2023/09/03 08:03:36;;;;;;;;;;;;;;;45.63;13.51;99134.66;5014994;28;19913;-77
2023/09/03 08:06:01;;;;;;;;;;;;;;;45.63;13.62;99132.72;5031464;28;19917;-75
2023/09/03 08:08:27;;;;;;;;;;;;;;;45.72;13.41;99140.06;5029796;28;19939;-77
2023/09/03 08:10:52;;;;;;;;;;;;;;;45.69;13.24;99145.13;5014643;28;20363;-77
2023/09/03 08:13:17;;;;;;;;;;;;;;;45.68;13.51;99146.25;5032273;28;19920;-76
2023/09/03 08:15:43;;;;;;;;;;;;;;;45.73;13.56;99145.25;5031077;28;19912;-77
2023/09/03 08:18:08;;;;;;;;;;;;;;;45.75;13.39;99142.94;5014460;28;19963;-79
2023/09/03 08:20:33;;;;;;;;;;;;;;;45.75;13.58;99142.94;5017143;28;20388;-89
2023/09/03 08:22:59;;;;;;;;;;;;;;;45.75;13.01;99131.91;5015392;28;19966;-87
2023/09/03 08:25:24;;;;;;;;;;;;;;;45.74;12.97;99130.31;5032771;28;20350;-88
2023/09/03 08:27:49;;;;;;;;;;;;;;;45.79;12.70;99132.06;5030491;28;19917;-89
2023/09/03 08:30:15;;;;;;;;;;;;;;;45.76;13.15;99125.25;5014489;28;19913;-87
2023/09/03 08:32:40;;;;;;;;;;;;;;;45.79;13.03;99129.31;5014863;28;19917;-83
2023/09/03 08:35:06;;;;;;;;;;;;;;;45.80;12.71;99134.50;5018319;28;19925;-83
2023/09/03 08:37:32;;;;;;;;;;;;;;;45.73;13.22;99130.66;5012808;28;19924;-90
2023/09/03 08:39:57;;;;;;;;;;;;;;;45.41;13.32;99128.41;5033411;28;20408;-88
2023/09/03 08:42:22;;;;;;;;;;;;;;;44.97;13.38;99122.47;5015519;28;19989;-81
2023/09/03 08:44:51;;;;;;;;;;;;;;;45.22;13.58;99117.09;5031399;28;19913;-82
2023/09/03 08:47:17;;;;;;;;;;;;;;;45.12;13.03;99121.88;5031763;28;20008;-86
2023/09/03 08:49:42;;;;;;;;;;;;;;;44.12;13.96;99118.81;5014726;28;20371;-84
2023/09/03 08:52:07;;;;;;;;;;;;;;;44.63;13.43;99121.63;5031705;28;19913;-81
2023/09/03 08:54:33;;;;;;;;;;;;;;;44.89;13.55;99120.59;5014914;28;19913;-84
2023/09/03 08:56:58;;;;;;;;;;;;;;;45.01;13.10;99108.84;5030964;28;19917;-83
2023/09/03 08:59:23;;;;;;;;;;;;;;;44.14;13.79;99108.31;5014514;28;20308;-83
2023/09/03 09:01:51;;;;;;;;;;;;;;;43.42;14.35;99110.03;5030756;28;19920;-84
2023/09/03 09:04:16;;;;;;;;;;;;;;;42.71;14.95;99106.47;4999583;28;19913;-81
2023/09/03 09:06:43;;;;;;;;;;;;;;;42.15;15.53;99102.66;5018266;28;19920;-85
2023/09/03 09:09:09;;;;;;;;;;;;;;;41.63;15.64;99105.97;5035264;28;19936;-84
2023/09/03 09:11:37;;;;;;;;;;;;;;;41.14;16.46;99098.38;5032120;28;20277;-84
2023/09/03 09:14:02;;;;;;;;;;;;;;;40.75;18.06;99097.09;5022116;28;20024;-87
2023/09/03 09:16:27;;;;;;;;;;;;;;;41.33;16.97;99098.22;5034653;28;20318;-84
2023/09/03 09:18:53;;;;;;;;;;;;;;;40.98;17.09;99102.63;5036214;28;19913;-86
2023/09/03 09:21:18;;;;;;;;;;;;;;;40.53;18.28;99099.78;5018514;28;20311;-85
2023/09/03 09:23:43;;;;;;;;;;;;;;;40.16;18.40;99102.44;5029914;28;19923;-87
2023/09/03 09:26:18;;;;;;;;;;;;;;;39.86;18.62;99090.19;5033119;28;19913;-83
2023/09/03 09:29:03;;;;;;;;;;;;;;;39.51;19.86;99095.16;5037894;28;20323;-85
2023/09/03 09:31:32;;;;;;;;;;;;;;;39.26;19.93;99095.28;5037048;28;19956;-81
2023/09/03 09:33:59;;;;;;;;;;;;;;;39.72;19.32;99090.16;5020847;28;19967;-88
2023/09/03 09:36:24;;;;;;;;;;;;;;;39.70;19.17;99093.19;5036665;28;19939;-87
2023/09/03 09:38:51;;;;;;;;;;;;;;;40.06;18.81;99081.59;5016099;28;20443;-86
2023/09/03 09:41:19;;;;;;;;;;;;;;;40.34;18.72;99087.84;5015679;28;19913;-84
2023/09/03 09:43:46;;;;;;;;;;;;;;;40.07;18.56;99080.47;4998613;28;20456;-82
2023/09/03 09:46:12;;;;;;;;;;;;;;;40.25;18.12;99081.50;5014221;28;19924;-81
2023/09/03 09:48:40;;;;;;;;;;;;;;;40.65;17.71;99069.97;4997731;28;19917;-80
2023/09/03 09:51:06;;;;;;;;;;;;;;;40.77;17.24;99064.78;5015075;28;19960;-80
2023/09/03 09:53:31;;;;;;;;;;;;;;;40.68;17.09;99063.88;5019890;28;19964;-79
2023/09/03 09:56:03;;;;;;;;;;;;;;;40.93;17.10;99057.03;5034082;28;20075;-80
2023/09/03 09:58:35;;;;;;;;;;;;;;;41.06;17.14;99049.88;5031958;28;19971;-80
2023/09/03 10:01:01;;;;;;;;;;;;;;;40.97;16.97;99041.59;5032085;28;19924;-81
2023/09/03 10:03:39;;;;;;;;;;;;;;;40.83;16.71;99046.28;5032976;28;19913;-82
2023/09/03 10:06:05;;;;;;;;;;;;;;;40.58;17.10;99047.69;5033266;28;19920;-80
2023/09/03 10:08:30;;;;;;;;;;;;;;;40.31;17.34;99049.34;5033477;28;19913;-80
2023/09/03 10:10:55;;;;;;;;;;;;;;;40.01;17.46;99048.91;5017567;28;20392;-82
2023/09/03 10:13:20;;;;;;;;;;;;;;;39.84;17.10;99040.47;5016917;28;20370;-80
2023/09/03 10:15:46;;;;;;;;;;;;;;;39.59;17.49;99037.13;5000076;28;19913;-83
2023/09/03 10:18:11;;;;;;;;;;;;;;;39.35;17.78;99043.56;5016785;28;19913;-81
2023/09/03 10:20:37;;;;;;;;;;;;;;;39.13;17.65;99037.94;5033358;28;20015;-81
2023/09/03 10:23:04;;;;;;;;;;;;;;;39.21;17.74;99027.13;5033033;28;19920;-82
2023/09/03 10:25:29;;;;;;;;;;;;;;;38.93;17.68;99028.94;5034491;28;20361;-81
2023/09/03 10:28:03;;;;;;;;;;;;;;;38.99;17.47;99021.50;5016639;28;19995;-81
2023/09/03 10:30:30;;;;;;;;;;;;;;;38.98;17.42;99012.47;5033609;28;20407;-81
2023/09/03 10:32:55;;;;;;;;;;;;;;;38.94;17.29;99011.47;5033154;28;19920;-81
2023/09/03 10:35:20;;;;;;;;;;;;;;;38.82;17.43;99009.19;5032667;28;19921;-80
2023/09/03 10:37:49;;;;;;;;;;;;;;;38.66;17.40;99005.09;5034483;28;19924;-80
2023/09/03 10:40:21;;;;;;;;;;;;;;;38.76;17.49;99004.13;5016858;28;20307;-82
2023/09/03 10:42:52;;;;;;;;;;;;;;;38.53;17.83;99003.91;5032950;28;19913;-80
2023/09/03 10:45:18;;;;;;;;;;;;;;;38.32;18.04;98996.03;5032441;28;19920;-82
2023/09/03 10:48:10;;;;;;;;;;;;;;;38.24;17.97;98998.59;5032877;28;19913;-81
2023/09/03 10:50:49;;;;;;;;;;;;;;;38.09;18.39;98994.16;5032376;28;19913;-80
2023/09/03 10:53:33;;;;;;;;;;;;;;;38.03;18.55;98995.31;5016536;28;19920;-80
2023/09/03 10:56:07;;;;;;;;;;;;;;;37.90;18.60;98983.22;5033873;28;19963;-79
2023/09/03 10:58:33;;;;;;;;;;;;;;;37.80;19.43;98984.97;5033810;28;20011;-80
2023/09/03 11:01:19;;;;;;;;;;;;;;;37.71;19.65;98986.69;5033065;28;20399;-80
2023/09/03 11:03:47;;;;;;;;;;;;;;;37.56;20.26;98979.50;5032718;28;19924;-80
2023/09/03 11:06:22;;;;;;;;;;;;;;;37.41;20.52;98983.19;5016083;28;20380;-79
2023/09/03 11:08:48;;;;;;;;;;;;;;;37.25;20.61;98982.53;5015777;28;19913;-79
2023/09/03 11:11:20;;;;;;;;;;;;;;;37.11;20.67;98985.09;5015789;28;19920;-80
2023/09/03 11:13:49;;;;;;;;;;;;;;;37.02;20.93;98975.13;5032450;28;19912;-79
2023/09/03 11:16:15;;;;;;;;;;;;;;;36.93;20.72;98969.50;5032402;28;20362;-79
2023/09/03 11:18:46;;;;;;;;;;;;;;;36.96;20.52;98966.19;5033450;28;19917;-79
2023/09/03 11:21:11;;;;;;;;;;;;;;;37.00;20.82;98967.25;5032597;28;19917;-80
2023/09/03 11:23:36;;;;;;;;;;;;;;;37.07;21.08;98966.94;5031749;28;20075;-80
2023/09/03 11:26:03;;;;;;;;;;;;;;;37.08;20.67;98963.09;5015461;28;19920;-80
2023/09/03 11:28:28;;;;;;;;;;;;;;;37.10;20.50;98955.44;5031864;28;19999;-80
2023/09/03 11:30:58;;;;;;;;;;;;;;;37.14;20.56;98952.97;5015464;28;20378;-80
2023/09/03 11:33:23;;;;;;;;;;;;;;;37.09;20.48;98951.13;4999174;28;19981;-80
2023/09/03 11:35:48;;;;;;;;;;;;;;;37.03;20.25;98954.97;5032967;28;19925;-80
2023/09/03 11:38:14;;;;;;;;;;;;;;;36.89;19.83;98944.75;5032144;28;19923;-80
2023/09/03 11:40:39;;;;;;;;;;;;;;;36.79;19.62;98944.84;5032435;28;20011;-80
2023/09/03 11:43:07;;;;;;;;;;;;;;;36.70;19.74;98941.09;5015023;28;19913;-80
2023/09/03 11:45:32;;;;;;;;;;;;;;;36.61;19.87;98948.22;5031394;28;19916;-80
2023/09/03 11:47:58;;;;;;;;;;;;;;;36.58;19.86;98938.75;5015200;28;19919;-80
2023/09/03 11:50:23;;;;;;;;;;;;;;;36.55;19.81;98939.31;5015191;28;20323;-79
2023/09/03 11:52:48;;;;;;;;;;;;;;;36.48;20.21;98930.66;5015360;28;19920;-80
2023/09/03 11:55:14;;;;;;;;;;;;;;;36.39;20.28;98935.91;5031730;28;19913;-79
2023/09/03 11:57:39;;;;;;;;;;;;;;;36.31;20.33;98931.03;5033202;28;19917;-80
2023/09/03 12:00:06;;;;;;;;;;;;;;;36.19;20.41;98918.59;5031706;28;19913;-82
2023/09/03 12:02:32;;;;;;;;;;;;;;;36.13;20.56;98919.72;5031750;28;19924;-80
2023/09/03 12:04:57;;;;;;;;;;;;;;;36.05;20.73;98917.59;5015022;28;19913;-80
2023/09/03 12:07:22;;;;;;;;;;;;;;;35.98;20.92;98914.41;5031296;28;20327;-80
2023/09/03 12:09:48;;;;;;;;;;;;;;;35.92;21.16;98913.59;5015177;28;19919;-80
2023/09/03 12:12:13;;;;;;;;;;;;;;;35.91;21.40;98913.88;5014977;28;19920;-79
2023/09/03 12:14:39;;;;;;;;;;;;;;;36.01;21.56;98908.41;5031713;28;20019;-80
2023/09/03 12:17:04;;;;;;;;;;;;;;;36.09;21.64;98901.53;5015060;28;20285;-79
2023/09/03 12:19:39;;;;;;;;;;;;;;;36.14;21.80;98894.19;5014773;28;20447;-80
2023/09/03 12:22:04;;;;;;;;;;;;;;;36.22;21.55;98895.50;5015391;28;19913;-79
2023/09/03 12:24:29;;;;;;;;;;;;;;;36.22;21.22;98901.72;5031541;28;19913;-81
2023/09/03 12:27:03;;;;;;;;;;;;;;;36.27;20.98;98894.69;5031813;28;19920;-81
2023/09/03 12:29:28;;;;;;;;;;;;;;;36.16;20.31;98892.00;5031422;28;19913;-81
2023/09/03 12:31:54;;;;;;;;;;;;;;;36.05;20.41;98895.88;5031517;28;20299;-82
2023/09/03 12:34:39;;;;;;;;;;;;;;;35.92;20.80;98889.16;5031188;28;19991;-80
2023/09/03 12:37:04;;;;;;;;;;;;;;;35.81;20.96;98882.97;5033417;28;19921;-80
2023/09/03 12:39:33;;;;;;;;;;;;;;;35.75;21.04;98891.41;5018445;28;19913;-80
2023/09/03 12:41:59;;;;;;;;;;;;;;;35.65;21.11;98889.56;5018675;28;19913;-81
2023/09/03 12:44:24;;;;;;;;;;;;;;;35.57;21.47;98890.13;5018921;28;19936;-80